createdAt,value
2018-10-09T00:00:09.977Z,4.60
2018-10-09T00:02:38.622Z,4.66
2018-10-09T00:05:07.512Z,4.73
2018-10-09T00:07:38.949Z,4.74
2018-10-09T00:10:07.645Z,4.71
2018-10-09T00:12:36.281Z,4.59
2018-10-09T00:15:04.933Z,4.48
2018-10-09T00:17:33.458Z,4.47
2018-10-09T00:20:02.240Z,4.50
2018-10-09T00:22:31.020Z,4.48
2018-10-09T00:24:59.555Z,4.45
2018-10-09T00:27:29.141Z,4.46
2018-10-09T00:29:57.741Z,4.49
2018-10-09T00:32:26.247Z,4.47
2018-10-09T00:34:54.724Z,4.41
2018-10-09T00:37:24.322Z,4.34
2018-10-09T00:39:52.916Z,4.26
2018-10-09T00:42:21.666Z,4.18
2018-10-09T00:44:50.182Z,4.17
2018-10-09T00:47:18.806Z,4.23
2018-10-09T00:49:47.465Z,4.24
2018-10-09T00:52:15.970Z,4.20
2018-10-09T00:54:44.610Z,4.13
2018-10-09T00:57:13.205Z,4.05
2018-10-09T00:59:41.931Z,4.03
2018-10-09T01:02:10.633Z,4.05
2018-10-09T01:04:39.371Z,4.04
2018-10-09T01:07:08.037Z,4.12
2018-10-09T01:09:36.539Z,4.20
2018-10-09T01:12:06.155Z,4.23
2018-10-09T01:14:34.713Z,4.19
2018-10-09T01:17:03.606Z,4.11
2018-10-09T01:19:32.214Z,4.05
2018-10-09T01:22:00.819Z,3.96
2018-10-09T01:24:29.320Z,3.90
2018-10-09T01:26:57.962Z,3.82
2018-10-09T01:29:26.642Z,3.75
2018-10-09T01:31:55.305Z,3.76
2018-10-09T01:34:23.849Z,3.88
2018-10-09T01:36:52.690Z,3.86
2018-10-09T01:39:21.357Z,3.95
2018-10-09T01:41:50.001Z,3.98
2018-10-09T01:44:18.621Z,3.92
2018-10-09T01:46:47.153Z,3.88
2018-10-09T01:49:16.927Z,3.82
2018-10-09T01:51:45.869Z,3.79
2018-10-09T01:54:14.598Z,3.81
2018-10-09T01:56:43.269Z,3.90
2018-10-09T01:59:11.820Z,3.88
2018-10-09T02:01:40.617Z,3.97
2018-10-09T02:04:12.013Z,4.08
2018-10-09T02:06:40.674Z,4.16
2018-10-09T02:09:09.973Z,4.17
2018-10-09T02:11:38.647Z,4.17
2018-10-09T02:14:07.348Z,4.16
2018-10-09T02:16:35.893Z,4.20
2018-10-09T02:19:04.389Z,4.27
2018-10-09T02:21:33.006Z,4.30
2018-10-09T02:24:01.783Z,4.26
2018-10-09T02:26:30.398Z,4.18
2018-10-09T02:28:59.839Z,4.09
2018-10-09T02:31:28.335Z,4.07
2018-10-09T02:33:56.873Z,3.90
2018-10-09T02:36:25.432Z,3.83
2018-10-09T02:38:53.898Z,3.79
2018-10-09T02:41:22.670Z,3.81
2018-10-09T02:43:51.182Z,3.86
2018-10-09T02:46:19.811Z,3.83
2018-10-09T02:48:48.442Z,3.73
2018-10-09T02:51:17.052Z,3.72
2018-10-09T02:53:45.648Z,3.68
2018-10-09T02:56:15.059Z,3.67
2018-10-09T02:58:43.622Z,3.72
2018-10-09T03:01:13.154Z,3.79
2018-10-09T03:03:42.278Z,3.73
2018-10-09T03:06:11.008Z,3.68
2018-10-09T03:08:39.531Z,3.65
2018-10-09T03:11:08.266Z,3.66
2018-10-09T03:13:36.849Z,3.61
2018-10-09T03:16:06.582Z,3.58
2018-10-09T03:18:35.267Z,3.58
2018-10-09T03:21:03.837Z,3.50
2018-10-09T03:23:33.342Z,3.46
2018-10-09T03:26:01.974Z,3.49
2018-10-09T03:28:30.521Z,3.61
2018-10-09T03:30:59.070Z,3.69
2018-10-09T03:33:27.542Z,3.66
2018-10-09T03:35:56.116Z,3.67
2018-10-09T03:38:24.761Z,3.72
2018-10-09T03:40:53.502Z,3.72
2018-10-09T03:43:22.005Z,3.72
2018-10-09T03:45:50.649Z,3.72
2018-10-09T03:48:19.421Z,3.70
2018-10-09T03:50:47.966Z,3.68
2018-10-09T03:53:16.630Z,3.62
2018-10-09T03:55:45.243Z,3.53
2018-10-09T03:58:14.717Z,3.41
2018-10-09T04:00:43.297Z,3.36
2018-10-09T04:03:11.990Z,3.38
2018-10-09T04:05:40.705Z,3.35
2018-10-09T04:08:09.310Z,3.34
2018-10-09T04:10:37.929Z,3.33
2018-10-09T04:13:06.671Z,3.32
2018-10-09T04:15:35.224Z,3.31
2018-10-09T04:18:03.861Z,3.33
2018-10-09T04:20:32.515Z,3.37
2018-10-09T04:23:01.198Z,3.32
2018-10-09T04:25:30.280Z,3.28
2018-10-09T04:27:58.893Z,3.38
2018-10-09T04:30:27.462Z,3.51
2018-10-09T04:32:56.157Z,3.54
2018-10-09T04:35:25.044Z,3.60
2018-10-09T04:37:53.549Z,3.67
2018-10-09T04:40:22.191Z,3.61
2018-10-09T04:42:50.710Z,3.66
2018-10-09T04:45:20.201Z,3.61
2018-10-09T04:47:48.870Z,3.59
2018-10-09T04:50:17.677Z,3.47
2018-10-09T04:52:46.240Z,3.41
2018-10-09T04:55:14.776Z,3.46
2018-10-09T04:57:44.402Z,3.38
2018-10-09T05:00:12.886Z,3.28
2018-10-09T05:02:41.495Z,3.29
2018-10-09T05:05:10.070Z,3.31
2018-10-09T05:07:38.681Z,3.36
2018-10-09T05:10:08.993Z,3.37
2018-10-09T05:12:38.025Z,3.41
2018-10-09T05:15:07.318Z,3.41
2018-10-09T05:17:36.204Z,3.41
2018-10-09T05:20:06.642Z,3.47
2018-10-09T05:22:35.147Z,3.56
2018-10-09T05:25:03.657Z,3.62
2018-10-09T05:27:32.566Z,3.79
2018-10-09T05:30:01.165Z,3.79
2018-10-09T05:32:29.618Z,3.78
2018-10-09T05:34:58.372Z,3.92
2018-10-09T05:37:26.893Z,4.01
2018-10-09T05:39:56.226Z,4.11
2018-10-09T05:42:24.819Z,4.12
2018-10-09T05:44:53.408Z,4.14
2018-10-09T05:47:21.962Z,4.12
2018-10-09T05:49:50.757Z,4.18
2018-10-09T05:52:19.330Z,4.27
2018-10-09T05:54:47.819Z,4.41
2018-10-09T05:57:16.417Z,4.52
2018-10-09T05:59:45.056Z,4.64
2018-10-09T06:02:13.645Z,4.81
2018-10-09T06:04:42.149Z,5.00
2018-10-09T06:07:10.878Z,5.21
2018-10-09T06:09:41.530Z,5.46
2018-10-09T06:12:10.234Z,5.60
2018-10-09T06:14:38.747Z,5.72
2018-10-09T06:17:07.350Z,5.80
2018-10-09T06:19:36.044Z,6.01
2018-10-09T06:22:04.723Z,6.09
2018-10-09T06:24:33.498Z,6.13
2018-10-09T06:27:02.112Z,6.27
2018-10-09T06:29:30.722Z,6.47
2018-10-09T06:31:59.941Z,6.60
2018-10-09T06:34:28.546Z,6.69
2018-10-09T06:36:57.134Z,6.75
2018-10-09T06:39:26.853Z,6.83
2018-10-09T06:41:55.371Z,6.95
2018-10-09T06:44:23.921Z,7.03
2018-10-09T06:46:52.512Z,7.12
2018-10-09T06:49:21.267Z,7.18
2018-10-09T06:51:50.065Z,7.28
2018-10-09T06:54:18.866Z,7.30
2018-10-09T06:56:47.367Z,7.36
2018-10-09T06:59:15.991Z,7.42
2018-10-09T07:01:45.265Z,7.57
2018-10-09T07:04:14.281Z,7.66
2018-10-09T07:06:42.826Z,7.75
2018-10-09T07:09:12.285Z,7.83
2018-10-09T07:11:40.879Z,7.89
2018-10-09T07:14:09.469Z,7.95
2018-10-09T07:16:38.181Z,8.02
2018-10-09T07:19:06.776Z,8.11
2018-10-09T07:21:35.250Z,8.13
2018-10-09T07:24:03.889Z,8.21
2018-10-09T07:26:33.602Z,8.33
2018-10-09T07:29:02.190Z,8.44
2018-10-09T07:31:30.813Z,8.45
2018-10-09T07:33:59.434Z,8.53
2018-10-09T07:36:27.942Z,8.59
2018-10-09T07:38:56.571Z,8.61
2018-10-09T07:41:25.145Z,8.67
2018-10-09T07:43:53.874Z,8.79
2018-10-09T07:46:22.498Z,8.84
2018-10-09T07:48:51.065Z,8.96
2018-10-09T07:51:19.917Z,9.08
2018-10-09T07:53:48.408Z,9.15
2018-10-09T07:56:17.194Z,9.23
2018-10-09T07:58:45.782Z,9.34
2018-10-09T08:01:14.350Z,9.41
2018-10-09T08:03:42.906Z,9.52
2018-10-09T08:06:11.534Z,9.52
2018-10-09T08:08:40.419Z,9.58
2018-10-09T08:11:08.997Z,9.64
2018-10-09T08:13:37.534Z,9.66
2018-10-09T08:16:06.099Z,9.75
2018-10-09T08:18:34.740Z,9.79
2018-10-09T08:21:03.391Z,9.84
2018-10-09T08:23:32.145Z,9.83
2018-10-09T08:26:00.669Z,9.91
2018-10-09T08:28:29.583Z,9.99
2018-10-09T08:30:58.649Z,10.08
2018-10-09T08:33:27.354Z,10.15
2018-10-09T08:35:56.008Z,10.27
2018-10-09T08:38:24.609Z,10.29
2018-10-09T08:40:53.153Z,10.50
2018-10-09T08:43:21.627Z,10.66
2018-10-09T08:45:50.075Z,10.79
2018-10-09T08:48:18.744Z,10.91
2018-10-09T08:50:47.339Z,11.02
2018-10-09T08:53:16.040Z,11.15
2018-10-09T08:55:44.760Z,11.25
2018-10-09T08:58:13.311Z,11.45
2018-10-09T09:00:41.849Z,11.63
2018-10-09T09:03:10.369Z,11.86
2018-10-09T09:05:38.885Z,12.16
2018-10-09T09:08:07.445Z,12.32
2018-10-09T09:10:36.141Z,12.49
2018-10-09T09:13:04.687Z,12.59
2018-10-09T09:15:33.239Z,12.70
2018-10-09T09:18:05.083Z,12.81
2018-10-09T09:20:33.826Z,12.97
2018-10-09T09:23:02.386Z,13.14
2018-10-09T09:25:30.937Z,13.27
2018-10-09T09:27:59.529Z,13.32
2018-10-09T09:30:28.250Z,13.38
2018-10-09T09:32:56.842Z,13.48
2018-10-09T09:35:25.472Z,13.58
2018-10-09T09:37:54.185Z,13.71
2018-10-09T09:40:22.785Z,13.86
2018-10-09T09:42:51.335Z,13.98
2018-10-09T09:45:19.849Z,14.02
2018-10-09T09:47:48.381Z,14.08
2018-10-09T09:50:17.040Z,14.19
2018-10-09T09:52:45.618Z,14.30
2018-10-09T09:55:14.312Z,14.42
2018-10-09T09:57:42.912Z,14.60
2018-10-09T10:00:16.627Z,14.76
2018-10-09T10:02:45.201Z,14.91
2018-10-09T10:05:13.765Z,15.16
2018-10-09T10:07:42.470Z,15.38
2018-10-09T10:10:11.050Z,15.51
2018-10-09T10:12:39.679Z,15.63
2018-10-09T10:15:08.471Z,15.75
2018-10-09T10:17:37.042Z,15.98
2018-10-09T10:20:05.619Z,16.21
2018-10-09T10:22:34.375Z,16.37
2018-10-09T10:25:03.074Z,16.57
2018-10-09T10:27:32.993Z,16.73
2018-10-09T10:30:01.749Z,16.87
2018-10-09T10:32:30.370Z,16.99
2018-10-09T10:34:59.097Z,17.07
2018-10-09T10:37:27.679Z,17.26
2018-10-09T10:39:57.053Z,17.54
2018-10-09T10:42:25.842Z,17.73
2018-10-09T10:44:54.373Z,17.83
2018-10-09T10:47:22.937Z,17.89
2018-10-09T10:49:51.547Z,18.03
2018-10-09T10:52:20.372Z,18.21
2018-10-09T10:54:48.940Z,18.30
2018-10-09T10:57:17.509Z,18.46
2018-10-09T10:59:46.090Z,18.68
2018-10-09T11:02:14.570Z,18.95
2018-10-09T11:04:43.166Z,19.17
2018-10-09T11:07:11.868Z,19.46
2018-10-09T11:09:40.559Z,19.67
2018-10-09T11:12:09.142Z,19.92
2018-10-09T11:14:38.817Z,20.40
2018-10-09T11:17:07.407Z,20.96
2018-10-09T11:19:36.261Z,21.51
2018-10-09T11:22:04.821Z,21.68
2018-10-09T11:24:33.361Z,22.18
2018-10-09T11:27:01.862Z,22.82
2018-10-09T11:29:30.482Z,23.42
2018-10-09T11:31:59.315Z,23.85
2018-10-09T11:34:27.895Z,24.35
2018-10-09T11:36:56.403Z,24.90
2018-10-09T11:39:24.927Z,25.49
2018-10-09T11:41:53.842Z,26.06
2018-10-09T11:44:22.595Z,26.12
2018-10-09T11:46:51.215Z,26.21
2018-10-09T11:49:19.877Z,26.91
2018-10-09T11:51:48.525Z,27.03
2018-10-09T11:54:17.042Z,27.33
2018-10-09T11:56:45.922Z,27.25
2018-10-09T11:59:14.453Z,26.54
2018-10-09T12:01:43.034Z,27.08
2018-10-09T12:04:11.740Z,27.65
2018-10-09T12:06:40.483Z,27.98
2018-10-09T12:09:11.669Z,27.93
2018-10-09T12:11:41.119Z,26.98
2018-10-09T12:14:10.210Z,26.91
2018-10-09T12:16:38.721Z,27.26
2018-10-09T12:19:07.410Z,27.45
2018-10-09T12:21:36.604Z,27.87
2018-10-09T12:24:05.015Z,28.39
2018-10-09T12:26:33.872Z,28.66
2018-10-09T12:29:02.499Z,28.91
2018-10-09T12:31:31.179Z,29.10
2018-10-09T12:34:00.310Z,29.51
2018-10-09T12:36:28.913Z,29.70
2018-10-09T12:38:57.408Z,29.76
2018-10-09T12:41:25.982Z,29.10
2018-10-09T12:43:54.681Z,28.45
2018-10-09T12:46:23.562Z,27.81
2018-10-09T12:48:53.226Z,27.38
2018-10-09T12:51:21.740Z,27.05
2018-10-09T12:53:50.437Z,26.52
2018-10-09T12:56:19.064Z,26.06
2018-10-09T12:58:47.765Z,25.80
2018-10-09T13:01:16.294Z,25.68
2018-10-09T13:03:44.855Z,25.43
2018-10-09T13:06:14.095Z,25.54
2018-10-09T13:08:42.704Z,25.74
2018-10-09T13:11:11.476Z,26.22
2018-10-09T13:13:40.460Z,26.69
2018-10-09T13:16:09.090Z,27.00
2018-10-09T13:18:37.849Z,27.13
2018-10-09T13:21:07.043Z,27.21
2018-10-09T13:23:35.835Z,27.09
2018-10-09T13:26:04.415Z,26.91
2018-10-09T13:28:33.108Z,26.73
2018-10-09T13:31:01.764Z,26.87
2018-10-09T13:33:30.333Z,26.88
2018-10-09T13:35:58.949Z,26.76
2018-10-09T13:38:28.531Z,26.54
2018-10-09T13:40:57.386Z,26.23
2018-10-09T13:43:26.221Z,26.20
2018-10-09T13:45:54.794Z,26.31
2018-10-09T13:48:23.412Z,26.44
2018-10-09T13:50:52.090Z,26.57
2018-10-09T13:53:20.702Z,26.70
2018-10-09T13:55:49.285Z,26.85
2018-10-09T13:58:18.002Z,26.83
2018-10-09T14:00:46.625Z,26.87
2018-10-09T14:03:15.451Z,26.71
2018-10-09T14:05:44.033Z,26.34
2018-10-09T14:08:12.659Z,26.43
2018-10-09T14:10:42.484Z,26.56
2018-10-09T14:13:11.138Z,27.02
2018-10-09T14:15:39.930Z,27.24
2018-10-09T14:18:08.443Z,27.19
2018-10-09T14:20:37.017Z,27.01
2018-10-09T14:23:05.750Z,26.74
2018-10-09T14:25:34.255Z,26.48
2018-10-09T14:28:03.078Z,26.36
2018-10-09T14:30:32.616Z,26.36
2018-10-09T14:33:01.218Z,26.44
2018-10-09T14:35:29.814Z,26.50
2018-10-09T14:37:58.436Z,26.68
2018-10-09T14:40:27.046Z,26.84
2018-10-09T14:42:56.203Z,26.97
2018-10-09T14:45:25.762Z,26.89
2018-10-09T14:47:54.403Z,26.70
2018-10-09T14:50:22.997Z,26.41
2018-10-09T14:52:51.726Z,26.06
2018-10-09T14:55:20.318Z,25.70
2018-10-09T14:57:49.125Z,25.37
2018-10-09T15:00:17.705Z,25.17
2018-10-09T15:02:46.241Z,24.95
2018-10-09T15:05:14.838Z,24.80
2018-10-09T15:07:43.525Z,24.60
2018-10-09T15:10:12.325Z,24.33
2018-10-09T15:12:40.856Z,23.91
2018-10-09T15:15:09.562Z,23.70
2018-10-09T15:17:38.162Z,23.45
2018-10-09T15:20:08.536Z,23.10
2018-10-09T15:22:37.104Z,22.75
2018-10-09T15:25:05.716Z,22.36
2018-10-09T15:27:34.247Z,22.06
2018-10-09T15:30:02.843Z,21.73
2018-10-09T15:32:31.572Z,21.44
2018-10-09T15:35:00.212Z,21.13
2018-10-09T15:37:28.773Z,20.87
2018-10-09T15:39:57.494Z,20.63
2018-10-09T15:42:26.118Z,20.42
2018-10-09T15:44:54.845Z,20.18
2018-10-09T15:47:23.496Z,20.06
2018-10-09T15:49:52.166Z,19.85
2018-10-09T15:52:20.763Z,19.68
2018-10-09T15:54:49.304Z,19.58
2018-10-09T15:57:17.801Z,19.46
2018-10-09T15:59:47.486Z,19.20
2018-10-09T16:02:16.013Z,18.79
2018-10-09T16:04:44.630Z,18.52
2018-10-09T16:07:13.231Z,18.25
2018-10-09T16:09:41.874Z,18.04
2018-10-09T16:12:11.521Z,17.85
2018-10-09T16:14:40.053Z,17.62
2018-10-09T16:17:08.627Z,17.47
2018-10-09T16:19:37.278Z,17.25
2018-10-09T16:22:05.987Z,17.03
2018-10-09T16:24:34.562Z,16.92
2018-10-09T16:27:03.184Z,16.90
2018-10-09T16:29:31.674Z,16.83
2018-10-09T16:32:00.757Z,16.63
2018-10-09T16:34:29.334Z,16.46
2018-10-09T16:36:57.927Z,16.25
2018-10-09T16:39:27.217Z,16.12
2018-10-09T16:41:57.714Z,15.91
2018-10-09T16:44:26.187Z,15.72
2018-10-09T16:46:54.713Z,15.53
2018-10-09T16:49:23.323Z,15.49
2018-10-09T16:51:52.003Z,15.34
2018-10-09T16:54:20.600Z,15.28
2018-10-09T16:56:49.127Z,15.23
2018-10-09T16:59:17.615Z,15.09
2018-10-09T17:01:47.174Z,14.89
2018-10-09T17:04:15.863Z,14.78
2018-10-09T17:06:44.715Z,14.81
2018-10-09T17:09:13.394Z,14.69
2018-10-09T17:11:42.559Z,14.55
2018-10-09T17:14:11.714Z,14.49
2018-10-09T17:16:40.376Z,14.43
2018-10-09T17:19:09.132Z,14.39
2018-10-09T17:21:37.839Z,14.37
2018-10-09T17:24:06.537Z,14.29
2018-10-09T17:26:35.251Z,14.17
2018-10-09T17:29:03.899Z,14.01
2018-10-09T17:31:32.486Z,13.99
2018-10-09T17:34:01.118Z,14.05
2018-10-09T17:36:29.634Z,14.10
2018-10-09T17:38:58.445Z,14.14
2018-10-09T17:41:26.982Z,14.18
2018-10-09T17:43:55.516Z,14.12
2018-10-09T17:46:24.196Z,13.83
2018-10-09T17:48:52.697Z,13.74
2018-10-09T17:51:21.217Z,13.59
2018-10-09T17:53:49.872Z,13.53
2018-10-09T17:56:18.321Z,13.45
2018-10-09T17:58:46.931Z,13.38
2018-10-09T18:01:15.634Z,13.30
2018-10-09T18:03:46.202Z,13.24
2018-10-09T18:06:14.863Z,13.22
2018-10-09T18:08:43.727Z,13.15
2018-10-09T18:11:12.553Z,13.10
2018-10-09T18:13:41.333Z,13.07
2018-10-09T18:16:10.071Z,13.08
2018-10-09T18:18:41.990Z,13.05
2018-10-09T18:21:10.709Z,13.02
2018-10-09T18:23:40.522Z,12.98
2018-10-09T18:26:09.684Z,12.97
2018-10-09T18:28:38.359Z,12.95
2018-10-09T18:31:06.862Z,12.93
2018-10-09T18:33:35.569Z,12.96
2018-10-09T18:36:04.231Z,12.94
2018-10-09T18:38:33.020Z,12.84
2018-10-09T18:41:01.723Z,12.73
2018-10-09T18:43:30.227Z,12.63
2018-10-09T18:45:58.939Z,12.59
2018-10-09T18:48:27.621Z,12.52
2018-10-09T18:50:57.239Z,12.46
2018-10-09T18:53:25.922Z,12.45
2018-10-09T18:55:54.646Z,12.52
2018-10-09T18:58:23.129Z,12.62
2018-10-09T19:00:51.787Z,12.68
2018-10-09T19:05:55.425Z,12.78
2018-10-09T19:08:24.023Z,12.90
2018-10-09T19:10:52.916Z,12.92
2018-10-09T19:13:21.496Z,12.96
2018-10-09T19:15:49.970Z,13.01
2018-10-09T19:18:18.555Z,12.98
2018-10-09T19:20:47.356Z,12.88
2018-10-09T19:23:15.926Z,12.73
2018-10-09T19:25:44.577Z,12.60
2018-10-09T19:28:13.283Z,12.54
2018-10-09T19:30:41.865Z,12.52
2018-10-09T19:33:10.453Z,12.48
2018-10-09T19:35:39.225Z,12.49
2018-10-09T19:38:08.007Z,12.41
2018-10-09T19:40:36.665Z,12.38
2018-10-09T19:43:05.377Z,12.36
2018-10-09T19:45:34.038Z,12.28
2018-10-09T19:48:02.877Z,12.27
2018-10-09T19:50:31.585Z,12.12
2018-10-09T19:53:00.399Z,12.03
2018-10-09T19:55:29.152Z,11.94
2018-10-09T19:57:57.910Z,11.92
2018-10-09T20:00:26.685Z,11.88
2018-10-09T20:02:55.405Z,11.86
2018-10-09T20:05:23.982Z,11.82
2018-10-09T20:07:52.640Z,11.89
2018-10-09T20:10:22.307Z,11.85
2018-10-09T20:12:51.658Z,11.76
2018-10-09T20:15:20.421Z,11.69
2018-10-09T20:17:49.074Z,11.62
2018-10-09T20:20:17.622Z,11.53
2018-10-09T20:22:46.442Z,11.48
2018-10-09T20:25:15.004Z,11.49
2018-10-09T20:27:43.637Z,11.45
2018-10-09T20:30:12.843Z,11.37
2018-10-09T20:32:41.403Z,11.38
2018-10-09T20:35:10.188Z,11.39
2018-10-09T20:37:39.061Z,11.30
2018-10-09T20:40:08.646Z,11.28
2018-10-09T20:42:37.355Z,11.28
2018-10-09T20:45:06.225Z,11.22
2018-10-09T20:47:39.816Z,11.12
2018-10-09T20:50:08.383Z,11.13
2018-10-09T20:52:38.208Z,11.16
2018-10-09T20:55:06.907Z,11.18
2018-10-09T20:57:35.487Z,11.15
2018-10-09T21:00:04.728Z,11.12
2018-10-09T21:02:33.722Z,11.11
2018-10-09T21:05:02.288Z,11.04
2018-10-09T21:07:30.874Z,11.03
2018-10-09T21:09:59.434Z,10.99
2018-10-09T21:12:28.082Z,10.81
2018-10-09T21:14:56.780Z,10.75
2018-10-09T21:17:25.351Z,10.70
2018-10-09T21:19:54.005Z,10.63
2018-10-09T21:22:23.406Z,10.61
2018-10-09T21:24:51.991Z,10.65
2018-10-09T21:27:20.570Z,10.65
2018-10-09T21:29:49.233Z,10.58
2018-10-09T21:32:17.760Z,10.54
2018-10-09T21:34:46.590Z,10.54
2018-10-09T21:37:15.114Z,10.51
2018-10-09T21:39:43.797Z,10.56
2018-10-09T21:42:12.590Z,10.63
2018-10-09T21:44:41.070Z,10.55
2018-10-09T21:47:09.693Z,10.47
2018-10-09T21:49:38.490Z,10.40
2018-10-09T21:52:07.186Z,10.33
2018-10-09T21:54:35.714Z,10.31
2018-10-09T21:57:04.206Z,10.36
2018-10-09T21:59:32.741Z,10.33
2018-10-09T22:02:02.297Z,10.33
2018-10-09T22:04:30.975Z,10.34
2018-10-09T22:06:59.527Z,10.25
2018-10-09T22:09:28.050Z,10.19
2018-10-09T22:11:56.684Z,10.06
2018-10-09T22:14:26.333Z,9.96
2018-10-09T22:16:55.088Z,9.88
2018-10-09T22:19:23.844Z,9.84
2018-10-09T22:21:52.681Z,9.89
2018-10-09T22:24:21.297Z,9.90
2018-10-09T22:26:51.020Z,9.88
2018-10-09T22:29:22.117Z,9.92
2018-10-09T22:31:51.852Z,9.93
2018-10-09T22:34:20.799Z,9.89
2018-10-09T22:36:49.514Z,9.80
2018-10-09T22:39:18.088Z,9.72
2018-10-09T22:41:46.606Z,9.71
2018-10-09T22:44:15.311Z,9.64
2018-10-09T22:46:43.884Z,9.65
2018-10-09T22:49:12.491Z,9.54
2018-10-09T22:51:41.137Z,9.47
2018-10-09T22:54:09.732Z,9.48
2018-10-09T22:56:38.343Z,9.52
2018-10-09T22:59:07.029Z,9.57
2018-10-09T23:01:35.699Z,9.57
2018-10-09T23:04:04.317Z,9.51
2018-10-09T23:06:32.850Z,9.41
2018-10-09T23:09:01.605Z,9.33
2018-10-09T23:11:30.125Z,9.31
2018-10-09T23:13:58.740Z,9.34
2018-10-09T23:16:27.332Z,9.35
2018-10-09T23:18:56.020Z,9.34
2018-10-09T23:21:24.533Z,9.29
2018-10-09T23:23:53.134Z,9.23
2018-10-09T23:26:21.712Z,9.21
2018-10-09T23:28:51.337Z,9.17
2018-10-09T23:31:21.014Z,9.13
2018-10-09T23:33:49.569Z,9.09
2018-10-09T23:36:19.281Z,9.04
2018-10-09T23:38:47.809Z,9.04
2018-10-09T23:41:16.365Z,9.04
2018-10-09T23:43:45.888Z,9.03
2018-10-09T23:46:14.570Z,8.98
2018-10-09T23:48:43.196Z,8.94
2018-10-09T23:51:11.773Z,8.82
2018-10-09T23:53:41.397Z,8.73
2018-10-09T23:56:09.958Z,8.69
2018-10-09T23:58:38.604Z,8.66
